DHKAI EDLW-EDLW

Flight info

Callsign DHKAI
Flight time 0h 4m
Altitude
Route VFR
Aircraft DA42

Departure

Time 2026-04-29 17:25
Airport Dortmund Airport (EDLW)

Arrival

Time 2026-04-29 17:29
Airport Dortmund Airport (EDLW)
Time Latitude Longitude Altitude Speed Heading
2026-04-29 17:16 51.51214 7.60460 468 ft 0 kts 107°
2026-04-29 17:18 51.51220 7.60465 467 ft 0 kts 335°
2026-04-29 17:18 51.51232 7.60454 466 ft 11 kts 321°
2026-04-29 17:19 51.51216 7.60363 464 ft 11 kts 238°
2026-04-29 17:19 51.51171 7.60259 464 ft 11 kts 231°
2026-04-29 17:19 51.51199 7.60173 459 ft 18 kts 42°
2026-04-29 17:19 51.51276 7.60390 457 ft 26 kts 60°
2026-04-29 17:20 51.51376 7.60672 453 ft 32 kts 61°
2026-04-29 17:20 51.51449 7.60884 443 ft 21 kts 61°
2026-04-29 17:20 51.51518 7.61063 439 ft 14 kts 21°
2026-04-29 17:20 51.51569 7.60994 436 ft 10 kts 254°
2026-04-29 17:21 51.51553 7.60881 426 ft 12 kts 254°
2026-04-29 17:21 51.51527 7.60734 427 ft 16 kts 251°
2026-04-29 17:21 51.51525 7.60688 425 ft 0 kts 274°
2026-04-29 17:22 51.51534 7.60646 422 ft 15 kts 306°
2026-04-29 17:22 51.51611 7.60592 414 ft 7 kts 51°
2026-04-29 17:23 51.51614 7.60600 420 ft 0 kts 60°
2026-04-29 17:24 51.51641 7.60676 418 ft 33 kts 61°
2026-04-29 17:24 51.51841 7.61241 420 ft 78 kts 58°
2026-04-29 17:24 51.52147 7.62053 503 ft 94 kts 60°
2026-04-29 17:24 51.52494 7.63009 690 ft 102 kts 57°
2026-04-29 17:25 51.52915 7.63955 1041 ft 106 kts 46°
2026-04-29 17:25 51.53663 7.64119 1288 ft 136 kts 339°
2026-04-29 17:25 51.54245 7.62887 1587 ft 145 kts 283°
2026-04-29 17:25 51.53993 7.61298 1603 ft 150 kts 240°
2026-04-29 17:26 51.53512 7.59824 1707 ft 146 kts 234°
2026-04-29 17:26 51.53005 7.58466 1841 ft 141 kts 230°
2026-04-29 17:26 51.52409 7.57144 1840 ft 151 kts 230°
2026-04-29 17:26 51.51787 7.55776 1949 ft 149 kts 227°
2026-04-29 17:27 51.51058 7.54710 2099 ft 137 kts 200°
2026-04-29 17:27 51.50170 7.54543 1917 ft 125 kts 152°
2026-04-29 17:27 51.49620 7.55342 1654 ft 100 kts 94°
2026-04-29 17:27 51.49954 7.56217 1346 ft 95 kts 49°
2026-04-29 17:28 51.50332 7.56980 1102 ft 80 kts 59°
2026-04-29 17:28 51.50597 7.57675 930 ft 70 kts 58°
2026-04-29 17:28 51.50816 7.58339 790 ft 65 kts 67°
2026-04-29 17:28 51.51022 7.58958 668 ft 64 kts 61°
2026-04-29 17:29 51.51260 7.59585 611 ft 66 kts 59°
2026-04-29 17:29 51.51492 7.60237 484 ft 71 kts 60°
2026-04-29 17:29 51.51713 7.60888 419 ft 59 kts 58°
2026-04-29 17:29 51.51826 7.61205 412 ft 40 kts 60°
2026-04-29 17:30 51.52125 7.61993 513 ft 78 kts 55°
2026-04-29 17:30 51.52449 7.62683 779 ft 78 kts 55°
2026-04-29 17:30 51.52793 7.63398 1101 ft 80 kts 50°
2026-04-29 17:30 51.53294 7.63909 1206 ft 105 kts
2026-04-29 17:31 51.53972 7.63241 1415 ft 121 kts 326°
2026-04-29 17:31 51.54630 7.62257 1433 ft 134 kts 322°
2026-04-29 17:31 51.54947 7.60853 1455 ft 147 kts 256°
2026-04-29 17:31 51.54495 7.59387 1470 ft 147 kts 235°
2026-04-29 17:32 51.53902 7.58012 1482 ft 148 kts 227°
2026-04-29 17:32 51.53232 7.56788 1534 ft 145 kts 220°
2026-04-29 17:32 51.52514 7.55643 1537 ft 148 kts 217°
2026-04-29 17:32 51.51717 7.54615 1595 ft 144 kts 207°
2026-04-29 17:33 51.50856 7.53880 1636 ft 136 kts 189°
2026-04-29 17:33 51.50121 7.54063 1731 ft 120 kts 137°
2026-04-29 17:33 51.49491 7.54899 1780 ft 113 kts 115°
2026-04-29 17:33 51.49679 7.56022 1410 ft 119 kts 46°
2026-04-29 17:34 51.50215 7.56854 1168 ft 97 kts 51°
2026-04-29 17:34 51.50564 7.57653 956 ft 75 kts 62°
2026-04-29 17:34 51.50840 7.58366 892 ft 73 kts 63°
2026-04-29 17:34 51.51076 7.59070 715 ft 70 kts 64°
2026-04-29 17:35 51.51401 7.59984 564 ft 71 kts 61°
2026-04-29 17:35 51.51777 7.61064 412 ft 52 kts 62°
2026-04-29 17:35 51.51996 7.61670 457 ft 76 kts 58°
2026-04-29 17:36 51.52290 7.62442 681 ft 83 kts 60°
2026-04-29 17:36 51.52310 7.63365 926 ft 97 kts 111°
2026-04-29 17:36 51.51683 7.63985 1292 ft 118 kts 156°
2026-04-29 17:36 51.50909 7.63512 1597 ft 136 kts 225°
2026-04-29 17:37 51.50477 7.62090 1532 ft 147 kts 245°
2026-04-29 17:37 51.50102 7.60628 1625 ft 138 kts 243°
2026-04-29 17:37 51.49422 7.59854 1685 ft 113 kts 164°
2026-04-29 17:37 51.49005 7.60620 1662 ft 96 kts 78°
2026-04-29 17:38 51.49250 7.61629 1647 ft 99 kts 65°
2026-04-29 17:38 51.49681 7.62515 1566 ft 110 kts 32°
2026-04-29 17:38 51.50430 7.62203 1601 ft 129 kts 314°
2026-04-29 17:38 51.50486 7.60764 1588 ft 137 kts 251°
2026-04-29 17:39 51.50018 7.59493 1585 ft 132 kts 208°
2026-04-29 17:39 51.49190 7.59091 1580 ft 121 kts 165°
2026-04-29 17:39 51.48625 7.59846 1551 ft 106 kts 97°
2026-04-29 17:39 51.48826 7.60924 1561 ft 102 kts 64°
2026-04-29 17:40 51.49220 7.61899 1552 ft 106 kts 57°
2026-04-29 17:40 51.49704 7.62797 1533 ft 108 kts 50°
2026-04-29 17:40 51.50445 7.62891 1473 ft 129 kts 327°
2026-04-29 17:40 51.50646 7.61478 1312 ft 148 kts 257°
2026-04-29 17:41 51.50362 7.59914 1380 ft 143 kts 247°
2026-04-29 17:41 51.50040 7.58533 1232 ft 123 kts 249°
2026-04-29 17:41 51.50182 7.57399 1210 ft 116 kts 334°
2026-04-29 17:41 51.50795 7.57341 1147 ft 81 kts 62°
2026-04-29 17:42 51.50880 7.58266 903 ft 82 kts 77°
2026-04-29 17:42 51.51090 7.59083 729 ft 79 kts 63°
2026-04-29 17:42 51.51349 7.59833 589 ft 76 kts 63°
2026-04-29 17:42 51.51598 7.60539 459 ft 71 kts 62°
2026-04-29 17:43 51.51840 7.61231 448 ft 78 kts 58°
2026-04-29 17:43 51.52131 7.61994 612 ft 83 kts 61°
2026-04-29 17:43 51.52427 7.62802 755 ft 89 kts 61°
2026-04-29 17:43 51.52789 7.63699 923 ft 101 kts 58°
2026-04-29 17:44 51.53148 7.64690 1107 ft 103 kts 83°
2026-04-29 17:44 51.52696 7.65591 1151 ft 134 kts 161°
2026-04-29 17:44 51.51818 7.65415 1683 ft 126 kts 194°
2026-04-29 17:44 51.51147 7.64398 1691 ft 144 kts 232°
2026-04-29 17:45 51.50687 7.62935 1704 ft 149 kts 241°
2026-04-29 17:45 51.50236 7.61428 1609 ft 150 kts 241°
2026-04-29 17:45 51.49814 7.59902 1499 ft 148 kts 246°
2026-04-29 17:45 51.49525 7.58313 1416 ft 141 kts 270°
2026-04-29 17:46 51.49907 7.57176 1318 ft 105 kts 338°
2026-04-29 17:46 51.50550 7.56954 1218 ft 90 kts 29°
2026-04-29 17:46 51.50771 7.57766 1045 ft 91 kts 77°
2026-04-29 17:46 51.50908 7.58578 780 ft 67 kts 65°
2026-04-29 17:47 51.51152 7.59220 659 ft 69 kts 64°
2026-04-29 17:47 51.51368 7.59863 582 ft 65 kts 63°
2026-04-29 17:47 51.51590 7.60513 479 ft 67 kts 63°
2026-04-29 17:47 51.51795 7.61117 412 ft 46 kts 61°
2026-04-29 17:48 51.51984 7.61629 424 ft 71 kts 59°
2026-04-29 17:48 51.52243 7.62317 642 ft 76 kts 62°
2026-04-29 17:48 51.52589 7.63079 896 ft 85 kts 53°
2026-04-29 17:48 51.53030 7.63625 1067 ft 86 kts 16°
2026-04-29 17:49 51.53672 7.63288 1117 ft 104 kts 343°
2026-04-29 17:49 51.54330 7.62671 1156 ft 120 kts 320°
2026-04-29 17:49 51.54543 7.61362 1212 ft 134 kts 256°
2026-04-29 17:49 51.54104 7.60033 1240 ft 141 kts 233°
2026-04-29 17:50 51.53506 7.58734 1264 ft 144 kts 226°
2026-04-29 17:50 51.53078 7.57914 1288 ft 144 kts 223°
2026-04-29 17:50 51.52415 7.56743 1358 ft 141 kts 221°
2026-04-29 17:50 51.51716 7.55635 1378 ft 140 kts 217°
2026-04-29 17:51 51.50739 7.54291 1450 ft 136 kts 212°
2026-04-29 17:51 51.50198 7.53915 1563 ft 123 kts 170°
2026-04-29 17:51 51.49811 7.54785 1537 ft 110 kts 81°
2026-04-29 17:51 51.50009 7.55887 1324 ft 94 kts 68°
2026-04-29 17:52 51.50184 7.56424 1238 ft 87 kts 64°
2026-04-29 17:52 51.50276 7.56680 1181 ft 81 kts 62°
2026-04-29 17:52 51.50498 7.57360 1013 ft 68 kts 63°
2026-04-29 17:52 51.50733 7.58025 926 ft 68 kts 61°
2026-04-29 17:53 51.50955 7.58680 778 ft 67 kts 63°
2026-04-29 17:53 51.51179 7.59323 680 ft 65 kts 66°
2026-04-29 17:53 51.51407 7.59972 562 ft 70 kts 64°
2026-04-29 17:53 51.51633 7.60642 437 ft 73 kts 62°
2026-04-29 17:54 51.51833 7.61224 412 ft 45 kts 63°
2026-04-29 17:54 51.52055 7.61837 427 ft 80 kts 63°
2026-04-29 17:54 51.52322 7.62624 730 ft 82 kts 67°
2026-04-29 17:54 51.52685 7.63401 920 ft 99 kts 29°
2026-04-29 17:55 51.53372 7.63134 1231 ft 107 kts 341°
2026-04-29 17:55 51.54106 7.62405 1144 ft 138 kts 332°
2026-04-29 17:55 51.54460 7.60982 1266 ft 152 kts 257°
2026-04-29 17:55 51.53974 7.59452 1303 ft 156 kts 231°
2026-04-29 17:56 51.53299 7.58132 1375 ft 150 kts 219°
2026-04-29 17:56 51.52536 7.57071 1403 ft 142 kts 208°
2026-04-29 17:56 51.51661 7.56507 1365 ft 126 kts 173°
2026-04-29 17:56 51.50939 7.56988 1295 ft 103 kts 124°
2026-04-29 17:57 51.50598 7.57871 1034 ft 86 kts 77°
2026-04-29 17:57 51.50889 7.58584 832 ft 72 kts 57°
2026-04-29 17:57 51.51143 7.59241 670 ft 67 kts 64°
2026-04-29 17:57 51.51382 7.59927 562 ft 70 kts 64°
2026-04-29 17:58 51.51622 7.60616 441 ft 68 kts 62°
2026-04-29 17:58 51.51825 7.61203 412 ft 48 kts 61°
2026-04-29 17:58 51.52033 7.61781 452 ft 75 kts 59°
2026-04-29 17:58 51.52261 7.62553 743 ft 83 kts 91°
2026-04-29 17:59 51.51853 7.63290 1088 ft 100 kts 143°
2026-04-29 17:59 51.51184 7.63910 1277 ft 123 kts 143°
2026-04-29 17:59 51.50363 7.63215 1326 ft 161 kts 239°
2026-04-29 17:59 51.49976 7.61558 1296 ft 158 kts 249°
2026-04-29 18:00 51.49608 7.59885 1281 ft 158 kts 251°
2026-04-29 18:00 51.49323 7.58228 1313 ft 154 kts 255°
2026-04-29 18:00 51.49103 7.56534 1280 ft 156 kts 258°
2026-04-29 18:00 51.48907 7.54810 1269 ft 155 kts 271°
2026-04-29 18:01 51.49491 7.54045 1329 ft 112 kts 33°
2026-04-29 18:01 51.49822 7.55085 1316 ft 109 kts 74°
2026-04-29 18:01 51.50144 7.56214 1255 ft 115 kts 64°
2026-04-29 18:01 51.50451 7.57273 1093 ft 92 kts 64°
2026-04-29 18:02 51.50729 7.58068 999 ft 65 kts 63°
2026-04-29 18:02 51.50964 7.58722 808 ft 75 kts 62°
2026-04-29 18:02 51.51221 7.59466 675 ft 74 kts 60°
2026-04-29 18:02 51.51477 7.60185 554 ft 73 kts 61°
2026-04-29 18:03 51.51707 7.60861 417 ft 57 kts 63°
2026-04-29 18:03 51.51910 7.61436 430 ft 76 kts 60°
2026-04-29 18:03 51.52226 7.62263 596 ft 97 kts 65°
2026-04-29 18:03 51.52178 7.63365 873 ft 111 kts 115°
2026-04-29 18:04 51.51514 7.63944 1291 ft 126 kts 178°
2026-04-29 18:04 51.50807 7.63046 1428 ft 144 kts 239°
2026-04-29 18:04 51.50322 7.61626 1455 ft 146 kts 238°
2026-04-29 18:04 51.49850 7.60164 1428 ft 147 kts 240°
2026-04-29 18:05 51.49377 7.58732 1428 ft 145 kts 237°
2026-04-29 18:05 51.48934 7.57261 1429 ft 149 kts 257°
2026-04-29 18:05 51.49160 7.55711 1442 ft 140 kts 313°
2026-04-29 18:05 51.49871 7.55061 1386 ft 97 kts 30°
2026-04-29 18:06 51.50165 7.55842 1114 ft 80 kts 74°
2026-04-29 18:06 51.50302 7.56608 1008 ft 71 kts 70°
2026-04-29 18:06 51.50489 7.57319 971 ft 68 kts 66°
2026-04-29 18:06 51.50703 7.57957 864 ft 64 kts 60°
2026-04-29 18:07 51.50931 7.58614 755 ft 70 kts 65°
2026-04-29 18:07 51.51167 7.59283 655 ft 67 kts 63°
2026-04-29 18:07 51.51393 7.59954 591 ft 70 kts 62°
2026-04-29 18:07 51.51631 7.60643 434 ft 70 kts 62°
2026-04-29 18:08 51.51832 7.61224 412 ft 46 kts 60°
2026-04-29 18:08 51.52014 7.61723 421 ft 71 kts 57°
2026-04-29 18:08 51.52336 7.62449 640 ft 89 kts 52°
2026-04-29 18:08 51.52957 7.62879 774 ft 117 kts 356°
2026-04-29 18:09 51.53706 7.62201 910 ft 147 kts 300°
2026-04-29 18:09 51.53555 7.60585 1064 ft 159 kts 237°
2026-04-29 18:09 51.52951 7.59148 1175 ft 152 kts 234°
2026-04-29 18:09 51.52346 7.57781 1234 ft 149 kts 230°
2026-04-29 18:10 51.51723 7.56507 1310 ft 147 kts 226°
2026-04-29 18:10 51.50981 7.55523 1428 ft 127 kts 176°
2026-04-29 18:10 51.50590 7.56382 1279 ft 114 kts 90°
2026-04-29 18:10 51.50638 7.57639 990 ft 106 kts 78°
2026-04-29 18:11 51.50913 7.58632 779 ft 97 kts 60°
2026-04-29 18:11 51.51267 7.59595 545 ft 99 kts 62°
2026-04-29 18:11 51.51652 7.60679 430 ft 127 kts 61°
2026-04-29 18:11 51.52120 7.62004 427 ft 143 kts 61°
2026-04-29 18:12 51.52593 7.63044 1335 ft 75 kts 16°
2026-04-29 18:12 51.53220 7.62574 1459 ft 130 kts 338°
2026-04-29 18:12 51.54036 7.61805 1493 ft 137 kts 336°
2026-04-29 18:12 51.54345 7.60371 1318 ft 156 kts 246°
2026-04-29 18:13 51.53693 7.59012 1321 ft 149 kts 221°
2026-04-29 18:13 51.52969 7.57903 1248 ft 144 kts 213°
2026-04-29 18:13 51.52132 7.57046 1201 ft 139 kts 202°
2026-04-29 18:13 51.51215 7.56532 1095 ft 142 kts 176°
2026-04-29 18:14 51.50468 7.57151 1057 ft 108 kts 107°
2026-04-29 18:14 51.50715 7.58150 766 ft 107 kts 58°
2026-04-29 18:14 51.51143 7.59253 576 ft 117 kts 62°
2026-04-29 18:14 51.51531 7.60353 448 ft 123 kts 62°
2026-04-29 18:15 51.51989 7.61657 423 ft 142 kts 61°
2026-04-29 18:15 51.52482 7.63065 611 ft 116 kts 60°
2026-04-29 18:15 51.53094 7.62783 1303 ft 123 kts 338°
2026-04-29 18:15 51.53850 7.61964 1231 ft 137 kts 327°
2026-04-29 18:16 51.54099 7.60528 1221 ft 148 kts 247°
2026-04-29 18:16 51.53427 7.59247 1223 ft 151 kts 221°
2026-04-29 18:16 51.52653 7.58108 1250 ft 148 kts 216°
2026-04-29 18:16 51.51846 7.57124 1265 ft 143 kts 209°
2026-04-29 18:17 51.51006 7.56570 1136 ft 120 kts 160°
2026-04-29 18:17 51.50673 7.57673 853 ft 125 kts 77°
2026-04-29 18:17 51.51044 7.58966 649 ft 126 kts 61°
2026-04-29 18:17 51.51435 7.60082 538 ft 110 kts 61°
2026-04-29 18:18 51.51809 7.61154 431 ft 117 kts 61°
2026-04-29 18:18 51.51809 7.62355 793 ft 115 kts 141°
2026-04-29 18:18 51.51041 7.61908 819 ft 138 kts 231°
2026-04-29 18:18 51.50565 7.60821 768 ft 106 kts 236°
2026-04-29 18:19 51.50167 7.59770 841 ft 124 kts 233°
2026-04-29 18:19 51.49703 7.58507 1054 ft 135 kts 249°
2026-04-29 18:19 51.49957 7.57226 1177 ft 123 kts 332°
2026-04-29 18:19 51.50703 7.57096 1134 ft 109 kts 58°
2026-04-29 18:20 51.50849 7.58193 868 ft 92 kts 79°
2026-04-29 18:20 51.51079 7.59084 684 ft 79 kts 61°
2026-04-29 18:20 51.51381 7.59920 557 ft 95 kts 62°
2026-04-29 18:20 51.51779 7.61049 429 ft 132 kts 60°
2026-04-29 18:21 51.52256 7.62413 422 ft 145 kts 60°
2026-04-29 18:21 51.52896 7.63023 1215 ft 117 kts 347°
2026-04-29 18:21 51.53490 7.61978 1185 ft 150 kts 275°
2026-04-29 18:21 51.53114 7.60343 1192 ft 163 kts 242°
2026-04-29 18:22 51.52957 7.58637 1215 ft 162 kts 307°
2026-04-29 18:22 51.53845 7.58263 1280 ft 131 kts 39°
2026-04-29 18:22 51.54061 7.59508 1376 ft 127 kts 116°
2026-04-29 18:22 51.53208 7.59741 1533 ft 148 kts 207°
2026-04-29 18:23 51.52859 7.58169 1464 ft 165 kts 288°
2026-04-29 18:23 51.53606 7.57160 1532 ft 134 kts 11°
2026-04-29 18:23 51.54213 7.57994 1663 ft 113 kts 67°
2026-04-29 18:23 51.54470 7.59168 1733 ft 112 kts 91°
2026-04-29 18:24 51.53958 7.60049 1797 ft 128 kts 165°
2026-04-29 18:24 51.53138 7.59362 1739 ft 153 kts 231°
2026-04-29 18:24 51.52930 7.57763 1846 ft 143 kts 285°
2026-04-29 18:24 51.53508 7.56596 1823 ft 130 kts 346°
2026-04-29 18:25 51.54265 7.56699 1846 ft 106 kts 51°
2026-04-29 18:25 51.54370 7.57876 1688 ft 118 kts 109°
2026-04-29 18:25 51.53628 7.57936 1639 ft 163 kts 232°
2026-04-29 18:25 51.53144 7.56300 1612 ft 153 kts 245°
2026-04-29 18:26 51.52753 7.54768 1692 ft 145 kts 244°
2026-04-29 18:26 51.52328 7.53300 1754 ft 157 kts 240°
2026-04-29 18:26 51.51792 7.51809 1752 ft 153 kts 225°
2026-04-29 18:26 51.50987 7.50831 1863 ft 138 kts 189°
2026-04-29 18:27 51.50087 7.50818 1889 ft 129 kts 162°
2026-04-29 18:27 51.49230 7.51130 1950 ft 121 kts 150°
2026-04-29 18:27 51.48633 7.51964 1967 ft 113 kts 103°
2026-04-29 18:27 51.48867 7.53149 1934 ft 116 kts 65°
2026-04-29 18:28 51.49344 7.54330 1784 ft 140 kts 58°
2026-04-29 18:28 51.49875 7.55630 1458 ft 143 kts 62°
2026-04-29 18:28 51.50364 7.57014 1250 ft 139 kts 62°
2026-04-29 18:28 51.50850 7.58417 805 ft 160 kts 62°
2026-04-29 18:29 51.51422 7.60042 533 ft 171 kts 61°
2026-04-29 18:29 51.51810 7.61159 433 ft 171 kts 61°
2026-04-29 18:29 51.52786 7.62660 981 ft 140 kts 343°
2026-04-29 18:29 51.53566 7.61688 1036 ft 148 kts 315°
2026-04-29 18:30 51.53775 7.61057 991 ft 155 kts 291°
2026-04-29 18:30 51.53634 7.59311 913 ft 160 kts 251°
2026-04-29 18:30 51.53215 7.57726 946 ft 152 kts 236°
2026-04-29 18:30 51.52445 7.56686 1067 ft 139 kts 189°
2026-04-29 18:31 51.51518 7.56807 1035 ft 130 kts 161°
2026-04-29 18:31 51.50733 7.57388 909 ft 125 kts 133°
2026-04-29 18:31 51.50726 7.58408 788 ft 108 kts 54°
2026-04-29 18:31 51.51127 7.59255 695 ft 78 kts 58°
2026-04-29 18:32 51.51372 7.59909 595 ft 65 kts 62°
2026-04-29 18:32 51.51849 7.61258 416 ft 71 kts 61°
2026-04-29 18:32 51.52069 7.61895 405 ft 52 kts 63°
2026-04-29 18:33 51.52189 7.62241 406 ft 12 kts 66°
2026-04-29 18:33 51.52149 7.62347 405 ft 16 kts 151°
2026-04-29 18:33 51.52110 7.62379 404 ft 0 kts 151°
2026-04-29 18:34 51.52054 7.62379 408 ft 17 kts 221°
2026-04-29 18:35 51.52003 7.62251 413 ft 21 kts 239°
2026-04-29 18:35 51.51950 7.62101 415 ft 15 kts 240°
2026-04-29 18:35 51.51886 7.61916 421 ft 15 kts 242°
2026-04-29 18:35 51.51833 7.61766 426 ft 16 kts 241°
2026-04-29 18:36 51.51799 7.61672 429 ft 13 kts 240°
2026-04-29 18:36 51.51756 7.61548 431 ft 12 kts 238°
2026-04-29 18:36 51.51720 7.61447 435 ft 9 kts 241°
2026-04-29 18:36 51.51681 7.61338 437 ft 12 kts 240°
2026-04-29 18:37 51.51643 7.61230 435 ft 10 kts 240°
2026-04-29 18:37 51.51603 7.61122 436 ft 12 kts 239°
2026-04-29 18:37 51.51574 7.61060 437 ft 5 kts 212°
2026-04-29 18:37 51.51497 7.61019 435 ft 22 kts 236°
2026-04-29 18:38 51.51372 7.60667 453 ft 46 kts 239°
2026-04-29 18:38 51.51227 7.60257 458 ft 32 kts 241°
2026-04-29 18:38 51.51171 7.60235 463 ft 20 kts 62°
2026-04-29 18:38 51.51193 7.60399 468 ft 0 kts 110°